Aeroporto :
LOGIN :

Iscrizione | Disclaimer

   EN    FR    IT 

 










Sommario :    VFR   VFR Marginale   IFR   IFR Intensivo   IFR Molto Intensivo
Visibilità : 
Base nubi : 
>= 8 km
>= 3000ft
5 / 8 km
1000 / 3000 ft
1500m / 5 km
500 / 1000 ft
800 / 1500m
200 / 500 ft
< 800m
< 200 ft
Simboli :   Temporali  Nebbia  Neve Forte  Precipitazioni Forti  Vento > 20 kt
SIGMETs :   Varie  Temporali  Ghiacco  Turbolenza  Onda orograficha  Ceneri Vulcaniche






- Altitudine del aeroporto : 62 ft
- Codice IATA : TAN


GMTT - Tanger Ibn Batouta

ULTIMO METAR :
  • 252130Z 08027G38KT CAVOK 21/14 Q1018 NOSIG

METARs OBSOLETI :
  • 252100Z 08027G39KT CAVOK 21/14 Q1018 NOSIG
  • 252030Z 08024G35KT CAVOK 21/14 Q1018 NOSIG
  • 252000Z 07027G37KT CAVOK 22/14 Q1017 NOSIG
  • 251930Z 07024G34KT CAVOK 22/13 Q1017 NOSIG
  • 251900Z 08023KT CAVOK 23/13 Q1017 NOSIG

TAF TAF GMTT
Valido dal 25 a 18 ore il 27 a 00 ore UTC


251700Z 2518/2624 07025G38KT CAVOK



MetMap, La meteo Aeronautica in un colpo d'occhio ! - Copyright ORBIFLY Dicembre 2007 - Disclaimer

ORBIFLY MET'MAP TEAM :

Programmazione e sviluppo : Alexandra Zaïnal
Concezione : Baudouin d'Aumeries
Aiuto per la programmazione : Marc-Olivier Méhu
Supporto tecnico e logistico : Manuel Goepfert
Aiuto per la traduzione : Arnaldo La Scala

Contatto : metmap@orbifly.com




FONTI E CREDITI :

   NOAA